createdAt,value
2022-08-26T00:02:20.744Z,5.63
2022-08-26T00:05:43.474Z,8.00
2022-08-26T00:08:43.424Z,6.20
2022-08-26T00:11:55.495Z,6.97
2022-08-26T00:14:58.470Z,7.80
2022-08-26T00:18:23.472Z,6.27
2022-08-26T00:21:23.518Z,6.93
2022-08-26T00:24:47.999Z,5.87
2022-08-26T00:27:59.531Z,7.45
2022-08-26T00:31:24.520Z,5.90
2022-08-26T00:34:38.535Z,6.23
2022-08-26T00:37:50.740Z,6.00
2022-08-26T00:41:02.561Z,5.83
2022-08-26T00:44:30.543Z,7.27
2022-08-26T00:47:42.587Z,6.23
2022-08-26T00:51:09.622Z,7.37
2022-08-26T00:54:21.534Z,5.83
2022-08-26T00:57:45.627Z,7.63
2022-08-26T01:00:57.682Z,5.93
2022-08-26T01:04:21.630Z,6.30
2022-08-26T01:07:35.753Z,7.53
2022-08-26T01:10:49.609Z,7.30
2022-08-26T01:14:01.632Z,7.27
2022-08-26T01:20:31.652Z,7.00
2022-08-26T01:23:57.897Z,8.13
2022-08-26T01:27:13.675Z,8.35
2022-08-26T01:30:38.692Z,9.07
2022-08-26T01:33:50.759Z,8.00
2022-08-26T01:37:16.096Z,9.70
2022-08-26T01:40:28.774Z,10.10
2022-08-26T01:43:52.725Z,8.75
2022-08-26T01:47:10.798Z,9.95
2022-08-26T01:50:45.753Z,12.17
2022-08-26T01:53:45.982Z,11.83
2022-08-26T01:57:11.785Z,11.40
2022-08-26T02:00:23.795Z,10.33
2022-08-26T02:03:47.824Z,9.35
2022-08-26T02:07:11.789Z,9.47
2022-08-26T02:10:27.810Z,9.53
2022-08-26T02:13:53.816Z,9.23
2022-08-26T02:17:05.815Z,11.30
2022-08-26T02:20:29.853Z,8.40
2022-08-26T02:23:29.948Z,8.65
2022-08-26T02:26:41.848Z,10.93
2022-08-26T02:29:55.881Z,8.97
2022-08-26T02:33:19.902Z,10.23
2022-08-26T02:36:31.982Z,15.33
2022-08-26T02:40:02.006Z,12.87
2022-08-26T02:43:01.938Z,10.40
2022-08-26T02:46:29.941Z,10.30
2022-08-26T02:49:39.950Z,9.70
2022-08-26T02:53:04.052Z,12.07
2022-08-26T02:56:03.976Z,11.50
2022-08-26T02:59:15.946Z,9.27
2022-08-26T03:02:30.053Z,11.25
2022-08-26T03:05:43.001Z,10.25
2022-08-26T03:08:42.970Z,8.45
2022-08-26T03:11:56.008Z,10.30
2022-08-26T03:14:56.117Z,12.33
2022-08-26T03:18:22.003Z,11.00
2022-08-26T03:21:34.030Z,10.00
2022-08-26T03:24:46.244Z,10.73
2022-08-26T03:27:58.091Z,9.20
2022-08-26T03:31:01.408Z,11.65
2022-08-26T03:34:18.185Z,13.37
2022-08-26T03:37:30.156Z,10.93
2022-08-26T03:40:42.093Z,11.17
2022-08-26T03:44:06.082Z,12.03
2022-08-26T03:47:18.139Z,8.80
2022-08-26T03:50:45.081Z,10.27
2022-08-26T03:53:45.218Z,10.43
2022-08-26T03:57:04.155Z,9.13
2022-08-26T04:00:18.445Z,11.43
2022-08-26T04:03:28.292Z,12.05
2022-08-26T04:06:44.707Z,9.53
2022-08-26T04:09:56.185Z,12.60
2022-08-26T04:13:08.370Z,11.93
2022-08-26T04:16:23.266Z,12.33
2022-08-26T04:19:47.229Z,11.77
2022-08-26T04:23:31.225Z,12.33
2022-08-26T04:26:43.821Z,11.23
2022-08-26T04:30:07.251Z,15.27
2022-08-26T04:33:12.913Z,11.67
2022-08-26T04:36:31.306Z,13.03
2022-08-26T04:39:45.223Z,13.33
2022-08-26T04:42:58.256Z,12.67
2022-08-26T04:45:58.338Z,11.80
2022-08-26T04:49:22.272Z,14.10
2022-08-26T04:52:28.360Z,13.03
2022-08-26T04:55:55.196Z,13.70
2022-08-26T04:58:54.326Z,13.33
2022-08-26T05:02:18.395Z,9.07
2022-08-26T05:05:31.373Z,13.13
2022-08-26T05:08:55.379Z,11.85
2022-08-26T05:12:09.349Z,10.63
2022-08-26T05:15:22.418Z,10.25
2022-08-26T05:18:23.416Z,10.83
2022-08-26T05:21:47.558Z,11.80
2022-08-26T05:24:47.437Z,11.35
2022-08-26T05:28:14.403Z,13.73
2022-08-26T05:31:26.531Z,11.90
2022-08-26T05:34:38.457Z,9.80
2022-08-26T05:37:38.457Z,11.63
2022-08-26T05:41:02.523Z,10.23
2022-08-26T05:44:15.485Z,11.50
2022-08-26T05:47:28.520Z,12.43
2022-08-26T05:50:29.519Z,12.17
2022-08-26T05:53:56.479Z,11.33
2022-08-26T05:56:56.485Z,12.80
2022-08-26T06:00:22.509Z,10.47
2022-08-26T06:03:37.551Z,11.10
2022-08-26T06:06:49.685Z,9.63
2022-08-26T06:10:28.583Z,12.07
2022-08-26T06:13:11.884Z,9.83
2022-08-26T06:16:28.574Z,8.75
2022-08-26T06:19:41.349Z,13.43
2022-08-26T06:22:58.757Z,10.07
2022-08-26T06:26:11.046Z,9.60
2022-08-26T06:29:24.622Z,11.17
2022-08-26T06:32:35.590Z,13.13
2022-08-26T06:36:02.667Z,10.70
2022-08-26T06:39:14.598Z,11.77
2022-08-26T06:42:27.648Z,8.60
2022-08-26T06:45:39.767Z,10.03
2022-08-26T06:49:08.671Z,9.60
2022-08-26T06:52:24.400Z,11.20
2022-08-26T06:55:35.761Z,12.03
2022-08-26T06:58:38.732Z,8.00
2022-08-26T07:02:02.797Z,7.70
2022-08-26T07:05:16.716Z,9.45
2022-08-26T07:08:40.700Z,9.27
2022-08-26T07:12:04.779Z,7.30
2022-08-26T07:15:17.723Z,8.20
2022-08-26T07:18:18.751Z,7.37
2022-08-26T07:21:44.785Z,8.33
2022-08-26T07:24:56.799Z,8.87
2022-08-26T07:28:08.849Z,8.03
2022-08-26T07:31:09.590Z,9.35
2022-08-26T07:34:20.833Z,10.70
2022-08-26T07:37:35.551Z,10.43
2022-08-26T07:40:46.827Z,7.30
2022-08-26T07:43:58.890Z,8.87
2022-08-26T07:47:24.654Z,9.03
2022-08-26T07:50:48.955Z,9.10
2022-08-26T07:53:54.876Z,8.13
2022-08-26T07:57:09.310Z,6.33
2022-08-26T08:00:32.986Z,9.23
2022-08-26T08:03:44.913Z,7.10
2022-08-26T08:06:45.004Z,14.65
2022-08-26T08:10:11.658Z,8.60
2022-08-26T08:13:16.980Z,9.37
2022-08-26T08:16:45.999Z,6.40
2022-08-26T08:19:40.951Z,9.77
2022-08-26T08:22:59.934Z,8.80
2022-08-26T08:26:14.942Z,5.50
2022-08-26T08:29:28.075Z,9.43
2022-08-26T08:32:30.996Z,4.47
2022-08-26T08:35:42.997Z,6.17
2022-08-26T08:38:43.059Z,7.80
2022-08-26T08:42:15.998Z,9.93
2022-08-26T08:45:30.458Z,5.57
2022-08-26T08:48:54.187Z,5.17
2022-08-26T08:52:06.041Z,6.50
2022-08-26T08:55:31.017Z,8.57
2022-08-26T08:58:48.078Z,5.90
2022-08-26T09:02:20.115Z,8.53
2022-08-26T09:05:35.013Z,6.37
2022-08-26T09:08:59.068Z,4.90
2022-08-26T09:11:59.096Z,7.30
2022-08-26T09:15:25.459Z,6.67
2022-08-26T09:18:36.329Z,10.60
2022-08-26T09:22:04.628Z,4.13
2022-08-26T09:25:01.176Z,7.47
2022-08-26T09:28:13.166Z,4.43
2022-08-26T09:31:30.280Z,8.63
2022-08-26T09:34:42.180Z,5.50
2022-08-26T09:38:09.001Z,4.87
2022-08-26T09:41:30.628Z,6.73
2022-08-26T09:44:43.182Z,7.23
2022-08-26T09:48:17.260Z,8.60
2022-08-26T09:51:29.203Z,4.60
2022-08-26T09:54:41.221Z,4.97
2022-08-26T09:57:53.233Z,4.00
2022-08-26T10:01:18.295Z,4.27
2022-08-26T10:04:46.324Z,6.53
2022-08-26T10:07:59.716Z,4.00
2022-08-26T10:11:27.302Z,4.97
2022-08-26T10:18:05.372Z,5.70
2022-08-26T10:21:20.384Z,4.05
2022-08-26T10:24:44.279Z,3.13
2022-08-26T10:27:56.337Z,5.83
2022-08-26T10:31:20.373Z,4.13
2022-08-26T10:34:33.431Z,4.20
2022-08-26T10:37:59.355Z,4.35
2022-08-26T10:41:13.128Z,4.35
2022-08-26T10:44:36.372Z,4.47
2022-08-26T10:47:48.372Z,2.47
2022-08-26T10:51:12.388Z,2.77
2022-08-26T10:54:26.366Z,2.97
2022-08-26T10:57:51.424Z,3.67
2022-08-26T11:01:10.590Z,3.20
2022-08-26T11:04:47.499Z,3.50
2022-08-26T11:08:04.445Z,3.83
2022-08-26T11:11:30.515Z,3.67
2022-08-26T11:15:01.489Z,3.60
2022-08-26T11:18:25.588Z,5.23
2022-08-26T11:21:59.512Z,5.05
2022-08-26T11:25:30.943Z,2.70
2022-08-26T11:28:49.534Z,5.60
2022-08-26T11:32:17.556Z,3.40
2022-08-26T11:35:29.580Z,3.05
2022-08-26T11:38:53.524Z,1.70
2022-08-26T11:42:07.549Z,2.20
2022-08-26T11:45:39.603Z,3.60
2022-08-26T11:48:52.578Z,1.97
2022-08-26T11:52:17.579Z,3.23
2022-08-26T11:55:29.617Z,3.87
2022-08-26T11:58:53.562Z,3.13
2022-08-26T12:02:07.604Z,4.55
2022-08-26T12:05:31.601Z,3.70
2022-08-26T12:08:43.606Z,3.03
2022-08-26T12:12:07.636Z,5.47
2022-08-26T12:15:29.790Z,5.25
2022-08-26T12:18:55.661Z,4.37
2022-08-26T12:22:07.691Z,3.10
2022-08-26T12:25:36.202Z,4.07
2022-08-26T12:28:51.704Z,2.53
2022-08-26T12:32:15.720Z,4.33
2022-08-26T12:35:29.769Z,2.67
2022-08-26T12:38:57.610Z,5.00
2022-08-26T12:42:12.749Z,4.40
2022-08-26T12:45:36.812Z,6.17
2022-08-26T12:48:48.758Z,1.67
2022-08-26T12:52:15.816Z,5.40
2022-08-26T12:55:27.766Z,4.17
2022-08-26T13:02:05.918Z,2.80
2022-08-26T13:08:38.864Z,3.30
2022-08-26T13:12:06.851Z,4.57
2022-08-26T13:15:18.895Z,2.73
2022-08-26T13:18:31.872Z,1.95
2022-08-26T13:21:44.927Z,3.97
2022-08-26T13:25:11.952Z,2.03
2022-08-26T13:28:11.917Z,5.57
2022-08-26T13:31:35.927Z,3.07
2022-08-26T13:34:51.160Z,3.27
2022-08-26T13:38:12.919Z,2.00
2022-08-26T13:41:29.627Z,3.60
2022-08-26T13:44:38.953Z,4.00
2022-08-26T13:47:38.930Z,3.80
2022-08-26T13:51:08.270Z,4.87
2022-08-26T13:54:17.946Z,2.87
2022-08-26T13:57:45.022Z,2.33
2022-08-26T14:00:56.956Z,2.47
2022-08-26T14:04:26.935Z,2.10
2022-08-26T14:10:25.991Z,4.30
2022-08-26T14:13:40.009Z,1.23
2022-08-26T14:17:04.002Z,3.63
2022-08-26T14:20:16.061Z,1.27
2022-08-26T14:23:38.804Z,3.03
2022-08-26T14:26:46.011Z,2.13
2022-08-26T14:30:13.067Z,3.30
2022-08-26T14:33:25.130Z,1.33
2022-08-26T14:36:44.110Z,2.37
2022-08-26T14:39:44.110Z,1.40
2022-08-26T14:42:56.099Z,2.80
2022-08-26T14:46:09.107Z,1.77
2022-08-26T14:49:22.127Z,1.53
2022-08-26T14:52:25.141Z,1.83
2022-08-26T14:55:37.189Z,2.37
2022-08-26T14:58:38.130Z,1.30
2022-08-26T15:02:03.273Z,2.20
2022-08-26T15:05:03.148Z,2.87
2022-08-26T15:08:18.158Z,2.40
2022-08-26T15:11:19.205Z,1.37
2022-08-26T15:14:44.155Z,2.03
2022-08-26T15:17:58.186Z,2.75
2022-08-26T15:21:10.208Z,1.87
2022-08-26T15:24:30.241Z,2.87
2022-08-26T15:27:42.268Z,2.27
2022-08-26T15:30:42.218Z,3.23
2022-08-26T15:34:08.986Z,1.60
2022-08-26T15:37:08.244Z,4.43
2022-08-26T15:40:22.338Z,3.73
2022-08-26T15:43:28.698Z,6.90
2022-08-26T15:46:34.302Z,3.10
2022-08-26T15:49:48.277Z,3.87
2022-08-26T15:53:00.352Z,3.80
2022-08-26T15:56:12.329Z,4.77
2022-08-26T15:59:36.357Z,1.50
2022-08-26T16:02:36.324Z,4.30
2022-08-26T16:06:02.429Z,3.57
2022-08-26T16:12:03.438Z,2.37
2022-08-26T16:15:17.374Z,2.40
2022-08-26T16:18:29.384Z,3.50
2022-08-26T16:21:54.383Z,2.90
2022-08-26T16:24:54.364Z,2.03
2022-08-26T16:28:26.003Z,5.00
2022-08-26T16:31:19.511Z,2.60
2022-08-26T16:34:46.959Z,4.30
2022-08-26T16:41:05.481Z,1.97
2022-08-26T16:44:30.851Z,3.70
2022-08-26T16:47:32.569Z,4.37
2022-08-26T16:50:57.486Z,3.80
2022-08-26T16:54:09.498Z,1.37
2022-08-26T16:57:36.506Z,2.10
2022-08-26T17:00:48.564Z,3.30
2022-08-26T17:04:13.487Z,1.57
2022-08-26T17:07:13.568Z,5.80
2022-08-26T17:10:37.534Z,3.00
2022-08-26T17:13:51.583Z,1.03
2022-08-26T17:17:03.548Z,1.93
2022-08-26T17:20:03.604Z,1.80
2022-08-26T17:23:19.578Z,3.03
2022-08-26T17:26:31.591Z,2.37
2022-08-26T17:30:00.589Z,1.53
2022-08-26T17:33:12.590Z,2.35
2022-08-26T17:36:28.107Z,3.00
2022-08-26T17:39:37.787Z,3.70
2022-08-26T17:42:49.651Z,3.07
2022-08-26T17:46:07.024Z,4.87
2022-08-26T17:49:27.638Z,3.53
2022-08-26T17:52:27.673Z,2.47
2022-08-26T17:55:39.671Z,1.63
2022-08-26T17:58:47.992Z,2.93
2022-08-26T18:02:12.778Z,1.30
2022-08-26T18:05:36.690Z,1.73
2022-08-26T18:08:42.736Z,1.57
2022-08-26T18:12:01.847Z,2.05
2022-08-26T18:15:13.745Z,3.93
2022-08-26T18:18:39.768Z,1.40
2022-08-26T18:21:51.760Z,2.03
2022-08-26T18:25:15.794Z,2.70
2022-08-26T18:28:16.743Z,1.77
2022-08-26T18:31:41.834Z,1.50
2022-08-26T18:34:56.787Z,1.00
2022-08-26T18:38:22.463Z,2.13
2022-08-26T18:41:22.058Z,2.83
2022-08-26T18:44:48.903Z,3.03
2022-08-26T18:47:48.878Z,3.47
2022-08-26T18:51:14.867Z,1.20
2022-08-26T18:54:26.848Z,3.03
2022-08-26T18:57:38.845Z,1.05
2022-08-26T19:00:41.873Z,1.63
2022-08-26T19:04:06.901Z,3.23
2022-08-26T19:07:20.901Z,1.27
2022-08-26T19:10:32.901Z,2.20
2022-08-26T19:13:32.953Z,1.55
2022-08-26T19:17:02.945Z,1.60
2022-08-26T19:20:14.915Z,1.33
2022-08-26T19:23:40.950Z,2.15
2022-08-26T19:26:57.486Z,1.17
2022-08-26T19:30:17.025Z,2.40
2022-08-26T19:33:18.040Z,2.97
2022-08-26T19:36:43.018Z,1.75
2022-08-26T19:39:56.035Z,0.93
2022-08-26T19:43:11.997Z,1.00
2022-08-26T19:46:11.030Z,2.47
2022-08-26T19:49:23.073Z,3.43
2022-08-26T19:52:35.060Z,2.25
2022-08-26T19:56:00.035Z,3.87
2022-08-26T19:59:12.052Z,0.87
2022-08-26T20:02:36.129Z,1.13
2022-08-26T20:06:00.074Z,1.90
2022-08-26T20:09:12.095Z,1.20
2022-08-26T20:12:41.085Z,1.43
2022-08-26T20:15:53.100Z,1.50
2022-08-26T20:19:11.065Z,2.07
2022-08-26T20:22:11.123Z,2.63
2022-08-26T20:25:36.135Z,1.83
2022-08-26T20:28:50.938Z,3.67
2022-08-26T20:32:15.357Z,2.60
2022-08-26T20:35:27.182Z,2.97
2022-08-26T20:38:39.177Z,1.03
2022-08-26T20:45:08.160Z,0.73
2022-08-26T20:48:20.232Z,0.90
2022-08-26T20:51:44.230Z,1.70
2022-08-26T20:54:44.300Z,2.17
2022-08-26T20:57:58.220Z,1.10
2022-08-26T21:01:12.316Z,0.70
2022-08-26T21:04:36.546Z,1.00
2022-08-26T21:07:36.300Z,3.13
2022-08-26T21:10:51.288Z,1.90
2022-08-26T21:14:17.152Z,0.95
2022-08-26T21:17:21.293Z,1.07
2022-08-26T21:20:22.308Z,2.05
2022-08-26T21:23:34.304Z,0.80
2022-08-26T21:26:46.340Z,1.67
2022-08-26T21:29:58.406Z,2.90
2022-08-26T21:33:18.353Z,1.90
2022-08-26T21:36:33.354Z,2.60
2022-08-26T21:39:33.446Z,3.40
2022-08-26T21:42:57.391Z,2.70
2022-08-26T21:45:57.460Z,0.90
2022-08-26T21:49:23.375Z,0.95
2022-08-26T21:52:35.388Z,1.07
2022-08-26T21:55:59.389Z,3.17
2022-08-26T21:58:59.503Z,1.47
2022-08-26T22:02:12.483Z,1.13
2022-08-26T22:05:38.505Z,1.37
2022-08-26T22:08:38.430Z,2.20
2022-08-26T22:12:06.460Z,2.37
2022-08-26T22:15:19.542Z,1.37
2022-08-26T22:18:32.797Z,1.85
2022-08-26T22:21:46.488Z,2.20
2022-08-26T22:25:04.539Z,1.33
2022-08-26T22:28:04.505Z,1.37
2022-08-26T22:31:38.395Z,2.97
2022-08-26T22:34:45.514Z,1.20
2022-08-26T22:38:10.629Z,2.73
2022-08-26T22:41:22.525Z,1.45
2022-08-26T22:44:35.587Z,2.00
2022-08-26T22:47:41.565Z,1.80
2022-08-26T22:51:05.608Z,1.70
2022-08-26T22:54:18.699Z,2.00
2022-08-26T22:57:44.807Z,2.30
2022-08-26T23:00:56.656Z,2.63
2022-08-26T23:04:20.605Z,1.50
2022-08-26T23:07:20.632Z,1.60
2022-08-26T23:10:46.659Z,1.73
2022-08-26T23:13:46.653Z,1.37
2022-08-26T23:17:00.717Z,1.07
2022-08-26T23:20:00.731Z,2.83
2022-08-26T23:23:24.712Z,0.80
2022-08-26T23:26:38.735Z,2.97
2022-08-26T23:29:50.931Z,3.90
2022-08-26T23:33:02.733Z,3.53
2022-08-26T23:36:30.801Z,1.87
2022-08-26T23:39:42.719Z,1.90
2022-08-26T23:43:09.768Z,2.10
2022-08-26T23:46:09.881Z,2.60
2022-08-26T23:49:27.757Z,2.03
2022-08-26T23:52:33.734Z,1.03
2022-08-26T23:55:58.792Z,0.90
2022-08-26T23:59:12.788Z,1.30
